Granville, WV (26534)

12:18 PM EDT on July 21, 2017 (GMT -0400)
WVU Evansdale NRCCE | | Change Station

Elev 1115 ft 39.65 °N, 79.97 °W | Updated 2 minutes ago

Mostly Cloudy
Mostly Cloudy
83.8 °F
Feels Like 92 °F
N
0.0
Wind Variable Wind from SW
Gusts 0.0 mph

Today
High -- | Low -- °F
--% Chance of Precip.
Yesterday
High -- | Low -- °F
Precip. -- in
Pressure 29.99 in
Visibility 8.0 miles
Clouds Scattered Clouds 1400 ft
Scattered Clouds 1900 ft
Mostly Cloudy 5500 ft
Heat Index 92 °F
Dew Point 75 °F
Humidity 76%
Rainfall 0.09 in
Snow Depth Not available.
6:09 AM 8:42 PM
Waning Crescent, 4% visible
METAR KMGW 211550Z 15003KT 8SM HZ SCT014 SCT019 BKN055 27/23 A3002 RMK AO2 SLP154 T02720228
Pressure 29.99 in
Visibility 8.0 miles
Clouds Scattered Clouds 1400 ft
Scattered Clouds 1900 ft
Mostly Cloudy 5500 ft
Heat Index 92 °F
Dew Point 75 °F
Humidity 76%
Rainfall 0.09 in
Snow Depth Not available.
6:09 AM 8:42 PM
Waning Crescent, 4% visible
METAR KMGW 211550Z 15003KT 8SM HZ SCT014 SCT019 BKN055 27/23 A3002 RMK AO2 SLP154 T02720228

Get Severe Weather Alerts

Thanks for signing up!

Be on the lookout for a verification email in your inbox.

You'll start receiving the daily forecast at 6 AM.

×

10-Day Weather Forecast

Almanac

Astronomy

Jul. 21, 2017 Rise Set
Actual Time
Civil Twilight
Nautical Twilight
Astronomical Twilight
Moon
Length of Visible Light
Length of Day
Tomorrow will be .
, % of the Moon is Illuminated

Today's Extremes

State Highs State Lows

Community

WunderPhotos

Category 6

Welcome to Category 6. This is the collective home for Weather Underground's featured writeups by Dr. Jeff Masters (right), Bob Henson (left), Chris Burt, and other regular contributors.

Nearby

Air Quality

  Air Quality AQ Index Pollutant
Not available.

Snow Depth

Station Depth Elevation

Earthquake Activity

City Distance Mag. Time & Date
Minimum magnitude displayed is 2.5.

Coastal Water Temperatures

Place Temperature

Stations

Nearby Weather Stations

Station Location Temp. Windchill Dew Point Humidity Wind Precip. Elev Updated Type
                   

Watches & Warnings

There are currently no watches in effect.